createdAt,value
2019-01-19T00:02:45.876Z,26.47
2019-01-19T00:05:47.584Z,24.00
2019-01-19T00:08:47.251Z,27.13
2019-01-19T00:11:56.997Z,26.15
2019-01-19T00:14:33.872Z,25.13
2019-01-19T00:17:44.721Z,27.57
2019-01-19T00:20:50.431Z,28.23
2019-01-19T00:23:52.892Z,25.27
2019-01-19T00:26:51.035Z,24.20
2019-01-19T00:29:51.815Z,24.90
2019-01-19T00:32:50.873Z,23.63
2019-01-19T00:36:17.411Z,24.80
2019-01-19T00:39:39.333Z,24.40
2019-01-19T00:42:27.452Z,24.47
2019-01-19T00:45:37.376Z,25.93
2019-01-19T00:48:38.007Z,23.30
2019-01-19T00:51:39.873Z,25.23
2019-01-19T00:54:23.264Z,23.55
2019-01-19T00:57:30.375Z,28.38
2019-01-19T01:00:05.697Z,24.03
2019-01-19T01:03:18.829Z,28.40
2019-01-19T01:06:22.977Z,27.13
2019-01-19T01:09:17.497Z,28.10
2019-01-19T01:12:30.090Z,28.07
2019-01-19T01:15:19.871Z,23.50
2019-01-19T01:18:03.312Z,24.53
2019-01-19T01:21:07.396Z,21.87
2019-01-19T01:24:03.525Z,20.87
2019-01-19T01:27:08.037Z,23.23
2019-01-19T01:30:22.044Z,25.33
2019-01-19T01:33:04.284Z,26.87
2019-01-19T01:36:22.897Z,24.77
2019-01-19T01:39:14.365Z,22.33
2019-01-19T01:42:55.315Z,24.00
2019-01-19T01:45:58.003Z,26.97
2019-01-19T01:48:49.824Z,24.27
2019-01-19T01:51:53.855Z,24.52
2019-01-19T01:55:10.301Z,26.37
2019-01-19T01:58:10.113Z,26.63
2019-01-19T02:01:16.588Z,26.50
2019-01-19T02:04:17.248Z,23.80
2019-01-19T02:07:24.366Z,23.77
2019-01-19T02:10:13.152Z,23.53
2019-01-19T02:13:26.240Z,22.40
2019-01-19T02:16:43.103Z,24.10
2019-01-19T02:19:28.457Z,25.57
2019-01-19T02:22:12.792Z,24.70
2019-01-19T02:25:24.290Z,27.47
2019-01-19T02:28:20.355Z,27.70
2019-01-19T02:31:27.046Z,28.07
2019-01-19T02:34:59.657Z,26.90
2019-01-19T02:38:09.324Z,24.00
2019-01-19T02:41:02.274Z,25.17
2019-01-19T02:43:58.549Z,25.00
2019-01-19T02:46:50.284Z,25.70
2019-01-19T02:50:00.365Z,22.97
2019-01-19T02:52:58.786Z,22.33
2019-01-19T02:56:05.529Z,24.80
2019-01-19T02:59:15.314Z,25.73
2019-01-19T03:02:17.085Z,22.60
2019-01-19T03:05:12.610Z,22.43
2019-01-19T03:07:52.188Z,25.47
2019-01-19T03:11:11.905Z,24.70
2019-01-19T03:13:56.293Z,23.40
2019-01-19T03:16:57.965Z,29.53
2019-01-19T03:19:41.736Z,22.17
2019-01-19T03:22:30.010Z,25.12
2019-01-19T03:25:29.577Z,23.67
2019-01-19T03:28:19.708Z,26.20
2019-01-19T03:31:18.595Z,25.00
2019-01-19T03:34:20.317Z,26.57
2019-01-19T03:37:14.333Z,25.43
2019-01-19T03:40:09.813Z,25.83
2019-01-19T03:43:25.251Z,22.32
2019-01-19T03:46:14.836Z,20.43
2019-01-19T03:49:23.982Z,24.53
2019-01-19T03:52:16.580Z,22.55
2019-01-19T03:55:14.533Z,21.60
2019-01-19T03:57:54.173Z,20.90
2019-01-19T04:01:03.345Z,19.57
2019-01-19T04:03:53.501Z,22.77
2019-01-19T04:06:42.042Z,20.55
2019-01-19T04:09:48.460Z,22.63
2019-01-19T04:12:57.637Z,19.92
2019-01-19T04:15:48.324Z,18.53
2019-01-19T04:18:34.768Z,18.70
2019-01-19T04:21:44.611Z,19.85
2019-01-19T04:24:42.256Z,17.87
2019-01-19T04:27:11.920Z,18.27
2019-01-19T04:29:41.605Z,25.13
2019-01-19T04:32:11.418Z,20.57
2019-01-19T04:34:41.416Z,20.00
2019-01-19T04:37:11.253Z,18.92
2019-01-19T04:39:41.233Z,18.07
2019-01-19T04:42:11.661Z,21.07
2019-01-19T04:44:41.654Z,19.67
2019-01-19T04:47:11.599Z,19.77
2019-01-19T04:49:41.282Z,19.00
2019-01-19T04:52:10.942Z,19.77
2019-01-19T04:54:40.651Z,18.23
2019-01-19T04:57:10.562Z,16.73
2019-01-19T04:59:40.304Z,20.03
2019-01-19T05:02:10.055Z,18.80
2019-01-19T05:04:39.974Z,17.97
2019-01-19T05:07:09.912Z,22.45
2019-01-19T05:09:39.819Z,19.00
2019-01-19T05:12:09.734Z,17.25
2019-01-19T05:14:39.664Z,17.70
2019-01-19T05:17:09.634Z,22.05
2019-01-19T05:19:41.224Z,19.30
2019-01-19T05:22:10.915Z,19.70
2019-01-19T05:24:40.833Z,22.00
2019-01-19T05:27:10.504Z,20.70
2019-01-19T05:29:40.354Z,17.63
2019-01-19T05:32:11.538Z,19.40
2019-01-19T05:34:41.931Z,19.37
2019-01-19T05:37:11.625Z,20.25
2019-01-19T05:39:41.380Z,19.07
2019-01-19T05:42:11.041Z,21.15
2019-01-19T05:44:40.743Z,14.93
2019-01-19T05:47:10.667Z,15.72
2019-01-19T05:49:40.729Z,21.17
2019-01-19T05:52:10.502Z,17.50
2019-01-19T05:54:40.411Z,19.53
2019-01-19T05:57:10.332Z,18.95
2019-01-19T05:59:40.381Z,23.00
2019-01-19T06:02:11.396Z,17.67
2019-01-19T06:04:41.068Z,18.40
2019-01-19T06:07:10.755Z,21.48
2019-01-19T06:09:40.429Z,18.93
2019-01-19T06:12:10.417Z,18.17
2019-01-19T06:14:41.928Z,19.37
2019-01-19T06:17:11.785Z,18.53
2019-01-19T06:19:41.979Z,20.60
2019-01-19T06:22:12.068Z,16.80
2019-01-19T06:24:41.988Z,18.03
2019-01-19T06:27:11.818Z,21.57
2019-01-19T06:29:41.663Z,19.47
2019-01-19T06:32:11.686Z,18.30
2019-01-19T06:34:41.400Z,16.27
2019-01-19T06:37:11.162Z,17.85
2019-01-19T06:39:41.070Z,17.70
2019-01-19T06:42:10.814Z,18.50
2019-01-19T06:44:40.593Z,14.40
2019-01-19T06:47:10.442Z,17.57
2019-01-19T06:49:40.350Z,14.03
2019-01-19T06:52:11.118Z,16.30
2019-01-19T06:54:45.975Z,17.57
2019-01-19T06:57:21.461Z,15.20
2019-01-19T06:59:51.393Z,17.57
2019-01-19T07:02:21.601Z,16.87
2019-01-19T07:04:51.524Z,19.27
2019-01-19T07:07:21.282Z,16.13
2019-01-19T07:09:51.052Z,15.93
2019-01-19T07:12:20.946Z,17.33
2019-01-19T07:14:56.193Z,16.60
2019-01-19T07:17:28.621Z,17.03
2019-01-19T07:19:58.359Z,16.77
2019-01-19T07:22:28.286Z,18.43
2019-01-19T07:24:58.201Z,18.30
2019-01-19T07:27:28.177Z,18.93
2019-01-19T07:29:58.019Z,17.10
2019-01-19T07:32:27.933Z,17.07
2019-01-19T07:34:57.857Z,17.37
2019-01-19T07:37:27.770Z,16.00
2019-01-19T07:39:57.445Z,16.40
2019-01-19T07:42:27.130Z,16.03
2019-01-19T07:44:56.799Z,18.67
2019-01-19T07:47:26.974Z,19.03
2019-01-19T07:49:56.709Z,18.97
2019-01-19T07:52:27.561Z,16.17
2019-01-19T07:54:58.576Z,18.03
2019-01-19T07:57:31.374Z,19.40
2019-01-19T07:59:59.589Z,17.47
2019-01-19T08:02:29.263Z,20.70
2019-01-19T08:04:58.946Z,19.17
2019-01-19T08:07:28.636Z,16.73
2019-01-19T08:09:58.481Z,16.57
2019-01-19T08:12:28.166Z,20.70
2019-01-19T08:14:58.002Z,20.73
2019-01-19T08:17:27.927Z,20.23
2019-01-19T08:19:57.839Z,16.60
2019-01-19T08:22:27.748Z,17.53
2019-01-19T08:24:57.655Z,21.00
2019-01-19T08:27:27.649Z,20.30
2019-01-19T08:29:57.322Z,18.33
2019-01-19T08:32:27.103Z,22.67
2019-01-19T08:34:57.003Z,21.23
2019-01-19T08:37:27.001Z,18.20
2019-01-19T08:39:56.839Z,20.40
2019-01-19T08:42:26.750Z,16.70
2019-01-19T08:44:57.042Z,19.07
2019-01-19T08:47:26.877Z,16.33
2019-01-19T08:49:56.789Z,19.53
2019-01-19T08:52:26.724Z,18.83
2019-01-19T08:54:57.229Z,17.83
2019-01-19T08:57:27.153Z,17.53
2019-01-19T08:59:56.826Z,20.23
2019-01-19T09:02:26.826Z,17.93
2019-01-19T09:04:56.664Z,16.27
2019-01-19T09:07:33.486Z,18.60
2019-01-19T09:09:57.944Z,17.50
2019-01-19T09:12:27.856Z,16.80
2019-01-19T09:14:57.769Z,20.97
2019-01-19T09:17:28.059Z,17.27
2019-01-19T09:19:57.924Z,15.90
2019-01-19T09:22:27.825Z,18.63
2019-01-19T09:24:57.872Z,15.33
2019-01-19T09:27:27.653Z,14.40
2019-01-19T09:29:57.554Z,16.40
2019-01-19T09:32:28.248Z,18.17
2019-01-19T09:34:58.380Z,16.33
2019-01-19T09:37:28.052Z,14.07
2019-01-19T09:39:57.906Z,15.00
2019-01-19T09:42:27.818Z,17.27
2019-01-19T09:44:57.648Z,15.60
2019-01-19T09:47:28.271Z,15.77
2019-01-19T09:50:12.921Z,13.20
2019-01-19T09:55:36.029Z,16.67
2019-01-19T09:58:06.016Z,13.27
2019-01-19T10:00:37.840Z,15.20
2019-01-19T10:03:07.608Z,20.87
2019-01-19T10:05:37.281Z,17.37
2019-01-19T10:08:06.948Z,14.40
2019-01-19T10:10:36.720Z,14.33
2019-01-19T10:13:06.469Z,14.50
2019-01-19T10:15:36.558Z,12.70
2019-01-19T10:18:06.505Z,12.40
2019-01-19T10:20:50.389Z,12.57
2019-01-19T10:23:20.106Z,15.37
2019-01-19T10:25:49.721Z,21.00
2019-01-19T10:28:19.624Z,11.33
2019-01-19T10:30:49.292Z,11.30
2019-01-19T10:33:24.194Z,12.43
2019-01-19T10:35:59.510Z,11.60
2019-01-19T10:38:30.597Z,14.03
2019-01-19T10:41:00.568Z,12.07
2019-01-19T10:43:30.244Z,12.70
2019-01-19T10:46:00.161Z,30.87
2019-01-19T10:48:30.026Z,14.73
2019-01-19T10:50:59.906Z,9.57
2019-01-19T10:53:29.836Z,9.73
2019-01-19T10:55:59.721Z,9.07
2019-01-19T10:58:29.381Z,9.07
2019-01-19T11:00:59.384Z,9.30
2019-01-19T11:03:28.997Z,10.03
2019-01-19T11:05:58.670Z,10.63
2019-01-19T11:08:29.012Z,10.90
2019-01-19T11:10:58.918Z,10.30
2019-01-19T11:13:28.579Z,10.33
2019-01-19T11:15:58.257Z,21.13
2019-01-19T11:18:28.036Z,12.20
2019-01-19T11:20:57.956Z,10.50
2019-01-19T11:23:27.700Z,12.17
2019-01-19T11:25:57.584Z,9.10
2019-01-19T11:28:27.257Z,58.57
2019-01-19T11:30:56.997Z,73.07
2019-01-19T11:33:26.660Z,11.40
2019-01-19T11:35:56.410Z,8.27
2019-01-19T11:38:26.499Z,7.53
2019-01-19T11:40:56.414Z,8.13
2019-01-19T11:43:26.342Z,8.73
2019-01-19T11:45:57.105Z,10.70
2019-01-19T11:48:27.012Z,11.47
2019-01-19T11:50:56.919Z,9.80
2019-01-19T11:53:27.153Z,10.33
2019-01-19T11:55:57.063Z,10.87
2019-01-19T11:58:26.980Z,7.83
2019-01-19T12:00:56.954Z,9.40
2019-01-19T12:03:26.770Z,9.77
2019-01-19T12:05:56.688Z,11.30
2019-01-19T12:08:26.619Z,6.70
2019-01-19T12:10:56.535Z,7.17
2019-01-19T12:13:26.695Z,8.07
2019-01-19T12:15:56.903Z,9.17
2019-01-19T12:18:26.583Z,7.53
2019-01-19T12:20:56.246Z,8.20
2019-01-19T12:23:25.899Z,8.50
2019-01-19T12:25:55.783Z,7.00
2019-01-19T12:28:25.618Z,9.57
2019-01-19T12:30:55.539Z,7.53
2019-01-19T12:33:25.530Z,8.07
2019-01-19T12:35:55.359Z,7.53
2019-01-19T12:38:26.885Z,14.53
2019-01-19T12:40:56.791Z,7.70
2019-01-19T12:43:26.453Z,6.93
2019-01-19T12:45:58.638Z,6.33
2019-01-19T12:48:28.577Z,15.37
2019-01-19T12:50:58.666Z,11.23
2019-01-19T12:53:28.528Z,8.60
2019-01-19T12:55:58.363Z,7.60
2019-01-19T12:58:28.106Z,8.47
2019-01-19T13:00:57.839Z,6.83
2019-01-19T13:03:27.586Z,8.13
2019-01-19T13:06:31.518Z,9.00
2019-01-19T13:09:04.043Z,9.17
2019-01-19T13:11:54.744Z,10.17
2019-01-19T13:14:25.091Z,8.73
2019-01-19T13:17:14.243Z,9.37
2019-01-19T13:20:12.066Z,8.93
2019-01-19T13:23:09.594Z,8.67
2019-01-19T13:26:20.388Z,22.07
2019-01-19T13:29:23.446Z,12.10
2019-01-19T13:32:10.079Z,9.63
2019-01-19T13:35:22.427Z,12.90
2019-01-19T13:38:29.617Z,13.97
2019-01-19T13:41:22.871Z,10.47
2019-01-19T13:44:12.644Z,9.43
2019-01-19T13:47:25.230Z,11.08
2019-01-19T13:50:26.385Z,10.73
2019-01-19T13:53:19.063Z,8.80
2019-01-19T13:56:19.194Z,8.47
2019-01-19T13:59:05.269Z,10.70
2019-01-19T14:02:00.290Z,8.93
2019-01-19T14:05:12.835Z,8.87
2019-01-19T14:08:15.534Z,8.97
2019-01-19T14:11:07.151Z,11.37
2019-01-19T14:14:01.946Z,9.63
2019-01-19T14:17:00.025Z,20.33
2019-01-19T14:20:23.005Z,12.47
2019-01-19T14:23:27.701Z,9.60
2019-01-19T14:26:29.355Z,10.13
2019-01-19T14:29:14.955Z,9.33
2019-01-19T14:32:04.149Z,8.77
2019-01-19T14:34:54.820Z,8.53
2019-01-19T14:38:07.062Z,9.67
2019-01-19T14:41:10.870Z,7.57
2019-01-19T14:44:30.482Z,8.30
2019-01-19T14:47:25.045Z,8.43
2019-01-19T14:50:27.627Z,7.33
2019-01-19T14:53:38.783Z,7.97
2019-01-19T14:56:26.227Z,7.73
2019-01-19T14:59:26.970Z,8.77
2019-01-19T15:02:44.399Z,8.77
2019-01-19T15:05:54.451Z,8.00
2019-01-19T15:08:35.434Z,7.43
2019-01-19T15:11:28.401Z,6.97
2019-01-19T15:14:33.870Z,7.33
2019-01-19T15:17:40.779Z,7.03
2019-01-19T15:20:32.248Z,7.33
2019-01-19T15:23:41.956Z,7.87
2019-01-19T15:26:28.447Z,6.97
2019-01-19T15:30:00.016Z,8.20
2019-01-19T15:33:23.036Z,7.50
2019-01-19T15:36:24.616Z,10.07
2019-01-19T15:39:15.879Z,10.67
2019-01-19T15:42:13.437Z,30.33
2019-01-19T15:45:08.556Z,17.67
2019-01-19T15:48:03.304Z,15.03
2019-01-19T15:50:59.230Z,8.97
2019-01-19T15:53:38.273Z,11.70
2019-01-19T15:56:41.688Z,14.53
2019-01-19T15:59:57.867Z,10.48
2019-01-19T16:02:55.848Z,9.13
2019-01-19T16:05:51.305Z,9.13
2019-01-19T16:08:57.538Z,8.77
2019-01-19T16:11:52.172Z,8.50
2019-01-19T16:14:57.595Z,11.33
2019-01-19T16:17:50.479Z,9.77
2019-01-19T16:21:31.446Z,10.82
2019-01-19T16:24:38.361Z,13.00
2019-01-19T16:27:39.776Z,11.50
2019-01-19T16:30:39.732Z,10.65
2019-01-19T16:33:53.653Z,9.68
2019-01-19T16:37:16.960Z,13.00
2019-01-19T16:40:06.549Z,14.07
2019-01-19T16:43:09.459Z,10.93
2019-01-19T16:45:51.484Z,16.43
2019-01-19T16:48:40.159Z,9.97
2019-01-19T16:51:45.440Z,9.60
2019-01-19T16:54:53.967Z,13.83
2019-01-19T16:57:47.476Z,12.47
2019-01-19T17:01:03.677Z,10.43
2019-01-19T17:04:14.524Z,13.20
2019-01-19T17:07:27.105Z,9.47
2019-01-19T17:10:15.675Z,9.50
2019-01-19T17:13:11.951Z,9.33
2019-01-19T17:16:09.504Z,10.43
2019-01-19T17:18:58.315Z,9.87
2019-01-19T17:22:21.691Z,9.63
2019-01-19T17:25:36.954Z,11.93
2019-01-19T17:28:37.156Z,11.30
2019-01-19T17:31:24.604Z,12.23
2019-01-19T17:34:20.852Z,11.45
2019-01-19T17:37:42.076Z,11.67
2019-01-19T17:40:44.995Z,14.07
2019-01-19T17:43:35.883Z,11.83
2019-01-19T17:46:52.212Z,12.07
2019-01-19T17:50:03.112Z,11.17
2019-01-19T17:53:11.312Z,11.07
2019-01-19T17:56:29.528Z,10.77
2019-01-19T17:59:35.375Z,11.67
2019-01-19T18:02:24.097Z,11.53
2019-01-19T18:05:29.424Z,11.90
2019-01-19T18:08:21.285Z,12.87
2019-01-19T18:11:32.963Z,14.90
2019-01-19T18:14:28.146Z,15.50
2019-01-19T18:17:39.771Z,13.23
2019-01-19T18:20:22.864Z,16.12
2019-01-19T18:23:26.691Z,17.95
2019-01-19T18:26:34.580Z,11.87
2019-01-19T18:29:50.783Z,10.57
2019-01-19T18:32:29.211Z,11.23
2019-01-19T18:35:15.932Z,12.90
2019-01-19T18:38:14.917Z,12.03
2019-01-19T18:41:20.333Z,12.20
2019-01-19T18:44:33.520Z,11.68
2019-01-19T18:47:31.175Z,12.50
2019-01-19T18:50:29.174Z,11.97
2019-01-19T18:53:34.657Z,12.13
2019-01-19T18:56:50.164Z,12.87
2019-01-19T19:00:13.987Z,12.90
2019-01-19T19:03:26.028Z,15.47
2019-01-19T19:06:43.646Z,14.53
2019-01-19T19:09:39.101Z,15.90
2019-01-19T19:12:18.546Z,17.23
2019-01-19T19:15:44.893Z,14.97
2019-01-19T19:18:59.436Z,13.90
2019-01-19T19:22:07.210Z,15.20
2019-01-19T19:25:23.834Z,14.87
2019-01-19T19:28:45.401Z,18.13
2019-01-19T19:31:47.989Z,12.67
2019-01-19T19:35:08.513Z,17.13
2019-01-19T19:38:20.724Z,12.20
2019-01-19T19:41:20.354Z,13.03
2019-01-19T19:44:24.469Z,14.23
2019-01-19T19:47:26.829Z,16.97
2019-01-19T19:50:34.457Z,14.13
2019-01-19T19:53:05.188Z,13.70
2019-01-19T19:55:33.486Z,13.57
2019-01-19T19:58:03.357Z,12.40
2019-01-19T20:00:33.240Z,12.97
2019-01-19T20:03:03.478Z,13.80
2019-01-19T20:05:33.456Z,16.93
2019-01-19T20:08:04.080Z,13.03
2019-01-19T20:10:54.868Z,13.50
2019-01-19T20:13:24.939Z,14.80
2019-01-19T20:15:55.469Z,13.70
2019-01-19T20:18:25.444Z,16.20
2019-01-19T20:20:55.289Z,12.50
2019-01-19T20:23:25.195Z,13.13
2019-01-19T20:25:55.119Z,15.40
2019-01-19T20:28:25.020Z,11.93
2019-01-19T20:30:55.169Z,13.87
2019-01-19T20:33:24.890Z,12.50
2019-01-19T20:35:54.847Z,12.30
2019-01-19T20:38:25.453Z,14.63
2019-01-19T20:40:56.142Z,12.30
2019-01-19T20:43:26.055Z,12.40
2019-01-19T20:45:55.969Z,11.53
2019-01-19T20:48:26.155Z,11.53
2019-01-19T20:50:56.161Z,13.17
2019-01-19T20:53:26.010Z,13.33
2019-01-19T20:55:55.917Z,13.53
2019-01-19T20:58:26.832Z,12.80
2019-01-19T21:00:57.298Z,12.00
2019-01-19T21:03:27.209Z,12.30
2019-01-19T21:05:57.109Z,10.97
2019-01-19T21:08:27.029Z,11.10
2019-01-19T21:10:56.948Z,12.47
2019-01-19T21:13:26.853Z,11.73
2019-01-19T21:15:56.778Z,11.73
2019-01-19T21:18:27.233Z,12.03
2019-01-19T21:20:57.218Z,12.90
2019-01-19T21:23:27.116Z,10.40
2019-01-19T21:25:57.045Z,11.27
2019-01-19T21:28:26.946Z,13.60
2019-01-19T21:30:56.873Z,13.37
2019-01-19T21:33:26.850Z,13.03
2019-01-19T21:35:56.717Z,12.77
2019-01-19T21:38:27.218Z,13.23
2019-01-19T21:40:57.133Z,10.83
2019-01-19T21:43:27.047Z,11.37
2019-01-19T21:45:56.967Z,10.17
2019-01-19T21:48:26.872Z,10.97
2019-01-19T21:50:56.863Z,10.70
2019-01-19T21:53:26.711Z,10.00
2019-01-19T21:55:57.235Z,11.57
2019-01-19T21:58:27.134Z,10.50
2019-01-19T22:00:57.135Z,11.87
2019-01-19T22:03:26.973Z,11.97
2019-01-19T22:05:56.926Z,10.97
2019-01-19T22:08:27.715Z,10.77
2019-01-19T22:10:57.640Z,10.93
2019-01-19T22:13:27.846Z,10.10
2019-01-19T22:15:58.055Z,9.80
2019-01-19T22:18:27.980Z,11.40
2019-01-19T22:20:57.897Z,10.20
2019-01-19T22:23:27.809Z,11.43
2019-01-19T22:25:57.729Z,10.20
2019-01-19T22:28:27.635Z,11.63
2019-01-19T22:30:58.479Z,11.13
2019-01-19T22:33:28.393Z,10.63
2019-01-19T22:35:58.312Z,11.40
2019-01-19T22:38:28.224Z,11.13
2019-01-19T22:40:58.128Z,13.25
2019-01-19T22:43:30.846Z,12.90
2019-01-19T22:46:00.956Z,11.37
2019-01-19T22:48:30.969Z,12.17
2019-01-19T22:51:00.945Z,11.50
2019-01-19T22:53:30.619Z,11.87
2019-01-19T22:56:00.296Z,11.57
2019-01-19T22:58:30.376Z,12.57
2019-01-19T23:01:25.189Z,12.00
2019-01-19T23:03:55.077Z,11.73
2019-01-19T23:06:24.924Z,10.90
2019-01-19T23:08:54.907Z,13.00
2019-01-19T23:11:25.750Z,12.27
2019-01-19T23:13:55.588Z,11.07
2019-01-19T23:16:26.429Z,10.90
2019-01-19T23:18:56.412Z,10.93
2019-01-19T23:21:26.248Z,15.10
2019-01-19T23:23:56.151Z,12.77
2019-01-19T23:26:26.069Z,12.53
2019-01-19T23:28:55.985Z,13.70
2019-01-19T23:31:25.893Z,12.70
2019-01-19T23:33:55.819Z,13.30
2019-01-19T23:36:26.346Z,10.67
2019-01-19T23:38:56.262Z,12.07
2019-01-19T23:41:26.171Z,10.43
2019-01-19T23:43:56.919Z,12.57
2019-01-19T23:46:26.840Z,12.07
2019-01-19T23:48:57.199Z,9.97
2019-01-19T23:51:27.388Z,11.37
2019-01-19T23:53:58.502Z,10.37
2019-01-19T23:56:28.496Z,11.03
2019-01-19T23:58:58.330Z,10.60
